GLD1974 TFFC-TRPG
Flight info
| Callsign | GLD1974 |
|---|---|
| Flight time | 0h 29m |
| Altitude | 4000 |
| Route | BIMBO |
| Aircraft | C172/L-SFG/C |
Departure
| Time | 2026-05-05 18:39 |
|---|---|
| Airport | St-François Airport (TFFC) |
Arrival
| Time | 2026-05-05 19:08 |
|---|---|
| Airport | John A. Osborne Airport (TRPG) |
| Time | Latitude | Longitude | Altitude | Speed | Heading |
|---|---|---|---|---|---|
| 2026-05-05 18:33 | 16.25702 | -61.26391 | 16 ft | 0 kts | 302° |
| 2026-05-05 18:36 | 16.25716 | -61.26413 | 15 ft | 10 kts | 283° |
| 2026-05-05 18:36 | 16.25729 | -61.26494 | 15 ft | 13 kts | 279° |
| 2026-05-05 18:36 | 16.25769 | -61.26563 | 15 ft | 10 kts | 341° |
| 2026-05-05 18:37 | 16.25822 | -61.26505 | 15 ft | 13 kts | 96° |
| 2026-05-05 18:37 | 16.25820 | -61.26490 | 14 ft | 0 kts | 98° |
| 2026-05-05 18:37 | 16.25798 | -61.26356 | 13 ft | 39 kts | 99° |
| 2026-05-05 18:37 | 16.25751 | -61.26005 | 70 ft | 54 kts | 97° |
| 2026-05-05 18:38 | 16.25708 | -61.25610 | 189 ft | 58 kts | 99° |
| 2026-05-05 18:38 | 16.25654 | -61.25136 | 291 ft | 75 kts | 98° |
| 2026-05-05 18:38 | 16.25857 | -61.24580 | 410 ft | 105 kts | 43° |
| 2026-05-05 18:38 | 16.26626 | -61.24458 | 518 ft | 121 kts | 356° |
| 2026-05-05 18:39 | 16.27448 | -61.24756 | 629 ft | 131 kts | 334° |
| 2026-05-05 18:39 | 16.28184 | -61.25351 | 734 ft | 137 kts | 318° |
| 2026-05-05 18:39 | 16.28724 | -61.26181 | 833 ft | 143 kts | 296° |
| 2026-05-05 18:39 | 16.29191 | -61.27110 | 936 ft | 145 kts | 297° |
| 2026-05-05 18:40 | 16.29679 | -61.28037 | 1022 ft | 145 kts | 297° |
| 2026-05-05 18:40 | 16.30155 | -61.28936 | 1117 ft | 141 kts | 298° |
| 2026-05-05 18:40 | 16.30611 | -61.29822 | 1213 ft | 138 kts | 297° |
| 2026-05-05 18:40 | 16.31079 | -61.30704 | 1319 ft | 141 kts | 298° |
| 2026-05-05 18:41 | 16.31537 | -61.31618 | 1411 ft | 145 kts | 298° |
| 2026-05-05 18:41 | 16.31989 | -61.32570 | 1491 ft | 149 kts | 298° |
| 2026-05-05 18:41 | 16.32441 | -61.33520 | 1499 ft | 149 kts | 297° |
| 2026-05-05 18:41 | 16.32913 | -61.34490 | 1501 ft | 150 kts | 298° |
| 2026-05-05 18:42 | 16.33380 | -61.35461 | 1495 ft | 150 kts | 297° |
| 2026-05-05 18:42 | 16.33843 | -61.36419 | 1488 ft | 148 kts | 297° |
| 2026-05-05 18:42 | 16.34322 | -61.37373 | 1488 ft | 147 kts | 297° |
| 2026-05-05 18:42 | 16.34805 | -61.38303 | 1493 ft | 147 kts | 297° |
| 2026-05-05 18:43 | 16.35295 | -61.39249 | 1487 ft | 148 kts | 297° |
| 2026-05-05 18:43 | 16.35777 | -61.40186 | 1487 ft | 145 kts | 297° |
| 2026-05-05 18:43 | 16.36249 | -61.41118 | 1493 ft | 149 kts | 297° |
| 2026-05-05 18:43 | 16.36732 | -61.42078 | 1493 ft | 152 kts | 297° |
| 2026-05-05 18:44 | 16.37221 | -61.43056 | 1494 ft | 151 kts | 298° |
| 2026-05-05 18:44 | 16.37692 | -61.44020 | 1494 ft | 149 kts | 297° |
| 2026-05-05 18:44 | 16.38153 | -61.44973 | 1495 ft | 148 kts | 297° |
| 2026-05-05 18:44 | 16.38614 | -61.45945 | 1501 ft | 151 kts | 297° |
| 2026-05-05 18:45 | 16.39089 | -61.46939 | 1501 ft | 157 kts | 297° |
| 2026-05-05 18:45 | 16.39582 | -61.47949 | 1501 ft | 157 kts | 297° |
| 2026-05-05 18:45 | 16.40062 | -61.48925 | 1498 ft | 146 kts | 297° |
| 2026-05-05 18:45 | 16.40518 | -61.49868 | 1494 ft | 146 kts | 297° |
| 2026-05-05 18:46 | 16.40982 | -61.50836 | 1499 ft | 154 kts | 297° |
| 2026-05-05 18:46 | 16.41464 | -61.51835 | 1502 ft | 154 kts | 297° |
| 2026-05-05 18:46 | 16.41937 | -61.52827 | 1503 ft | 150 kts | 298° |
| 2026-05-05 18:46 | 16.42387 | -61.53807 | 1499 ft | 150 kts | 297° |
| 2026-05-05 18:47 | 16.42841 | -61.54774 | 1501 ft | 149 kts | 297° |
| 2026-05-05 18:47 | 16.43299 | -61.55712 | 1497 ft | 145 kts | 297° |
| 2026-05-05 18:47 | 16.43746 | -61.56640 | 1494 ft | 143 kts | 297° |
| 2026-05-05 18:47 | 16.44183 | -61.57577 | 1492 ft | 143 kts | 297° |
| 2026-05-05 18:48 | 16.44623 | -61.58528 | 1492 ft | 150 kts | 297° |
| 2026-05-05 18:48 | 16.45084 | -61.59525 | 1495 ft | 153 kts | 297° |
| 2026-05-05 18:48 | 16.45537 | -61.60524 | 1495 ft | 155 kts | 297° |
| 2026-05-05 18:48 | 16.45998 | -61.61549 | 1497 ft | 155 kts | 297° |
| 2026-05-05 18:49 | 16.46457 | -61.62554 | 1500 ft | 156 kts | 296° |
| 2026-05-05 18:49 | 16.46934 | -61.63562 | 1503 ft | 153 kts | 297° |
| 2026-05-05 18:49 | 16.47403 | -61.64540 | 1502 ft | 150 kts | 297° |
| 2026-05-05 18:49 | 16.47867 | -61.65503 | 1500 ft | 148 kts | 297° |
| 2026-05-05 18:50 | 16.48330 | -61.66464 | 1504 ft | 149 kts | 297° |
| 2026-05-05 18:50 | 16.48795 | -61.67432 | 1507 ft | 152 kts | 297° |
| 2026-05-05 18:50 | 16.49274 | -61.68443 | 1508 ft | 157 kts | 297° |
| 2026-05-05 18:50 | 16.49753 | -61.69473 | 1510 ft | 160 kts | 297° |
| 2026-05-05 18:51 | 16.50239 | -61.70519 | 1506 ft | 159 kts | 297° |
| 2026-05-05 18:51 | 16.50720 | -61.71552 | 1507 ft | 159 kts | 296° |
| 2026-05-05 18:51 | 16.51197 | -61.72577 | 1502 ft | 150 kts | 297° |
| 2026-05-05 18:51 | 16.51632 | -61.73518 | 1495 ft | 143 kts | 296° |
| 2026-05-05 18:52 | 16.52066 | -61.74451 | 1493 ft | 143 kts | 297° |
| 2026-05-05 18:52 | 16.52498 | -61.75398 | 1493 ft | 143 kts | 296° |
| 2026-05-05 18:52 | 16.52914 | -61.76316 | 1495 ft | 140 kts | 296° |
| 2026-05-05 18:52 | 16.53335 | -61.77223 | 1495 ft | 138 kts | 296° |
| 2026-05-05 18:53 | 16.53761 | -61.78124 | 1502 ft | 140 kts | 296° |
| 2026-05-05 18:53 | 16.54208 | -61.79050 | 1502 ft | 143 kts | 297° |
| 2026-05-05 18:53 | 16.54639 | -61.79982 | 1503 ft | 143 kts | 296° |
| 2026-05-05 18:53 | 16.55060 | -61.80912 | 1501 ft | 143 kts | 296° |
| 2026-05-05 18:54 | 16.55491 | -61.81855 | 1495 ft | 142 kts | 296° |
| 2026-05-05 18:54 | 16.55928 | -61.82765 | 1494 ft | 141 kts | 296° |
| 2026-05-05 18:54 | 16.56367 | -61.83687 | 1493 ft | 141 kts | 296° |
| 2026-05-05 18:54 | 16.56795 | -61.84596 | 1493 ft | 142 kts | 296° |
| 2026-05-05 18:55 | 16.57229 | -61.85534 | 1496 ft | 142 kts | 297° |
| 2026-05-05 18:55 | 16.57633 | -61.86465 | 1497 ft | 143 kts | 296° |
| 2026-05-05 18:55 | 16.58039 | -61.87428 | 1499 ft | 144 kts | 295° |
| 2026-05-05 18:55 | 16.58535 | -61.88326 | 1498 ft | 144 kts | 304° |
| 2026-05-05 18:56 | 16.59109 | -61.89194 | 1502 ft | 144 kts | 306° |
| 2026-05-05 18:56 | 16.59680 | -61.90047 | 1505 ft | 145 kts | 306° |
| 2026-05-05 18:56 | 16.60259 | -61.90925 | 1505 ft | 147 kts | 307° |
| 2026-05-05 18:56 | 16.60826 | -61.91802 | 1509 ft | 146 kts | 306° |
| 2026-05-05 18:57 | 16.61387 | -61.92669 | 1517 ft | 142 kts | 306° |
| 2026-05-05 18:57 | 16.61954 | -61.93519 | 1519 ft | 143 kts | 306° |
| 2026-05-05 18:57 | 16.62515 | -61.94364 | 1520 ft | 143 kts | 306° |
| 2026-05-05 18:57 | 16.63080 | -61.95225 | 1519 ft | 142 kts | 306° |
| 2026-05-05 18:58 | 16.63632 | -61.96066 | 1520 ft | 142 kts | 306° |
| 2026-05-05 18:58 | 16.64187 | -61.96916 | 1522 ft | 141 kts | 306° |
| 2026-05-05 18:58 | 16.64554 | -61.97478 | 1526 ft | 141 kts | 306° |
| 2026-05-05 18:58 | 16.65106 | -61.98328 | 1528 ft | 140 kts | 306° |
| 2026-05-05 18:59 | 16.65834 | -61.99434 | 1530 ft | 139 kts | 306° |
| 2026-05-05 18:59 | 16.66387 | -62.00263 | 1529 ft | 138 kts | 306° |
| 2026-05-05 18:59 | 16.66750 | -62.00805 | 1528 ft | 137 kts | 306° |
| 2026-05-05 18:59 | 16.67472 | -62.01878 | 1527 ft | 135 kts | 306° |
| 2026-05-05 19:00 | 16.67835 | -62.02418 | 1525 ft | 134 kts | 306° |
| 2026-05-05 19:00 | 16.68366 | -62.03207 | 1525 ft | 134 kts | 306° |
| 2026-05-05 19:00 | 16.69078 | -62.04267 | 1526 ft | 134 kts | 306° |
| 2026-05-05 19:00 | 16.69439 | -62.04806 | 1521 ft | 134 kts | 306° |
| 2026-05-05 19:01 | 16.69965 | -62.05592 | 1531 ft | 134 kts | 306° |
| 2026-05-05 19:01 | 16.70500 | -62.06392 | 1532 ft | 134 kts | 306° |
| 2026-05-05 19:01 | 16.71028 | -62.07183 | 1534 ft | 134 kts | 306° |
| 2026-05-05 19:01 | 16.71557 | -62.07977 | 1536 ft | 134 kts | 306° |
| 2026-05-05 19:02 | 16.72091 | -62.08780 | 1539 ft | 135 kts | 306° |
| 2026-05-05 19:02 | 16.72628 | -62.09589 | 1536 ft | 138 kts | 306° |
| 2026-05-05 19:02 | 16.73179 | -62.10434 | 1538 ft | 143 kts | 306° |
| 2026-05-05 19:02 | 16.73746 | -62.11303 | 1542 ft | 146 kts | 305° |
| 2026-05-05 19:03 | 16.74322 | -62.12177 | 1544 ft | 147 kts | 305° |
| 2026-05-05 19:03 | 16.74904 | -62.13057 | 1545 ft | 148 kts | 306° |
| 2026-05-05 19:03 | 16.75490 | -62.13942 | 1546 ft | 148 kts | 305° |
| 2026-05-05 19:03 | 16.76081 | -62.14821 | 1546 ft | 148 kts | 306° |
| 2026-05-05 19:04 | 16.76659 | -62.15680 | 1542 ft | 136 kts | 306° |
| 2026-05-05 19:04 | 16.77157 | -62.16428 | 1530 ft | 117 kts | 306° |
| 2026-05-05 19:04 | 16.77589 | -62.17094 | 1544 ft | 110 kts | 304° |
| 2026-05-05 19:04 | 16.78033 | -62.17753 | 1540 ft | 106 kts | 307° |
| 2026-05-05 19:05 | 16.78436 | -62.18355 | 1532 ft | 97 kts | 304° |
| 2026-05-05 19:05 | 16.78806 | -62.18888 | 1541 ft | 84 kts | 306° |
| 2026-05-05 19:05 | 16.79142 | -62.19393 | 1507 ft | 90 kts | 304° |
| 2026-05-05 19:05 | 16.79543 | -62.19935 | 1488 ft | 97 kts | 319° |
| 2026-05-05 19:06 | 16.79982 | -62.20396 | 1473 ft | 91 kts | 323° |
| 2026-05-05 19:06 | 16.80439 | -62.20896 | 1459 ft | 93 kts | 323° |
| 2026-05-05 19:06 | 16.80485 | -62.21463 | 1465 ft | 78 kts | 204° |
| 2026-05-05 19:06 | 16.80048 | -62.21409 | 1292 ft | 64 kts | 140° |
| 2026-05-05 19:07 | 16.79678 | -62.21183 | 1146 ft | 59 kts | 142° |
| 2026-05-05 19:07 | 16.79357 | -62.20923 | 989 ft | 62 kts | 127° |
| 2026-05-05 19:07 | 16.79212 | -62.20536 | 827 ft | 55 kts | 108° |
| 2026-05-05 19:07 | 16.79154 | -62.20171 | 678 ft | 50 kts | 104° |
| 2026-05-05 19:08 | 16.79130 | -62.19819 | 585 ft | 50 kts | 91° |
| 2026-05-05 19:08 | 16.79134 | -62.19455 | 551 ft | 47 kts | 101° |
| 2026-05-05 19:08 | 16.79133 | -62.19319 | 551 ft | 1 kts | 102° |
| 2026-05-05 19:08 | 16.79133 | -62.19317 | 551 ft | 0 kts | 96° |
| 2026-05-05 19:09 | 16.79134 | -62.19313 | 551 ft | 1 kts | 51° |
| 2026-05-05 19:09 | 16.79120 | -62.19309 | 551 ft | 6 kts | 300° |
| 2026-05-05 19:09 | 16.79183 | -62.19319 | 551 ft | 10 kts | 1° |
| 2026-05-05 19:09 | 16.79224 | -62.19353 | 551 ft | 7 kts | 282° |
| 2026-05-05 19:10 | 16.79216 | -62.19369 | 552 ft | 0 kts | 132° |